sensor_id;sensor_type;location;lat;lon;timestamp;P1;durP1;ratioP1;P2;durP2;ratioP2
56122;SDS011;42426;46.104;19.656;2023-11-22T00:00:32;22.35;;;14.90;;
56122;SDS011;42426;46.104;19.656;2023-11-22T00:02:59;23.00;;;15.77;;
56122;SDS011;42426;46.104;19.656;2023-11-22T00:05:25;23.77;;;15.20;;
56122;SDS011;42426;46.104;19.656;2023-11-22T00:07:51;21.52;;;14.60;;
56122;SDS011;42426;46.104;19.656;2023-11-22T00:10:17;25.63;;;15.63;;
56122;SDS011;42426;46.104;19.656;2023-11-22T00:12:43;25.13;;;16.38;;
56122;SDS011;42426;46.104;19.656;2023-11-22T00:15:10;26.95;;;15.43;;
56122;SDS011;42426;46.104;19.656;2023-11-22T00:17:37;22.85;;;15.05;;
56122;SDS011;42426;46.104;19.656;2023-11-22T00:20:04;22.92;;;15.63;;
56122;SDS011;42426;46.104;19.656;2023-11-22T00:22:31;23.52;;;16.20;;
56122;SDS011;42426;46.104;19.656;2023-11-22T00:24:58;22.60;;;15.88;;
56122;SDS011;42426;46.104;19.656;2023-11-22T00:27:26;29.95;;;18.77;;
56122;SDS011;42426;46.104;19.656;2023-11-22T00:29:52;27.55;;;16.05;;
56122;SDS011;42426;46.104;19.656;2023-11-22T00:32:19;22.27;;;15.35;;
56122;SDS011;42426;46.104;19.656;2023-11-22T00:34:46;24.92;;;16.90;;
56122;SDS011;42426;46.104;19.656;2023-11-22T00:37:13;27.45;;;16.08;;
56122;SDS011;42426;46.104;19.656;2023-11-22T00:39:39;24.30;;;17.25;;
56122;SDS011;42426;46.104;19.656;2023-11-22T00:42:05;26.08;;;17.55;;
56122;SDS011;42426;46.104;19.656;2023-11-22T00:44:31;25.70;;;18.27;;
56122;SDS011;42426;46.104;19.656;2023-11-22T00:46:57;30.80;;;19.00;;
56122;SDS011;42426;46.104;19.656;2023-11-22T00:49:24;29.45;;;19.17;;
56122;SDS011;42426;46.104;19.656;2023-11-22T00:51:50;31.33;;;19.17;;
56122;SDS011;42426;46.104;19.656;2023-11-22T00:54:17;30.80;;;18.40;;
56122;SDS011;42426;46.104;19.656;2023-11-22T00:56:45;29.33;;;18.95;;
56122;SDS011;42426;46.104;19.656;2023-11-22T00:59:11;31.10;;;20.17;;
56122;SDS011;42426;46.104;19.656;2023-11-22T01:01:39;27.75;;;17.95;;
56122;SDS011;42426;46.104;19.656;2023-11-22T01:04:05;31.98;;;18.20;;
56122;SDS011;42426;46.104;19.656;2023-11-22T01:06:32;29.13;;;18.52;;
56122;SDS011;42426;46.104;19.656;2023-11-22T01:08:59;30.15;;;18.73;;
56122;SDS011;42426;46.104;19.656;2023-11-22T01:11:26;32.60;;;19.60;;
56122;SDS011;42426;46.104;19.656;2023-11-22T01:13:52;27.20;;;18.98;;
56122;SDS011;42426;46.104;19.656;2023-11-22T01:16:18;27.48;;;18.80;;
56122;SDS011;42426;46.104;19.656;2023-11-22T01:18:44;30.98;;;18.02;;
56122;SDS011;42426;46.104;19.656;2023-11-22T01:21:11;33.25;;;20.38;;
56122;SDS011;42426;46.104;19.656;2023-11-22T01:23:37;30.80;;;20.38;;
56122;SDS011;42426;46.104;19.656;2023-11-22T01:26:04;30.75;;;20.27;;
56122;SDS011;42426;46.104;19.656;2023-11-22T01:28:30;32.60;;;20.83;;
56122;SDS011;42426;46.104;19.656;2023-11-22T01:30:59;35.97;;;21.08;;
56122;SDS011;42426;46.104;19.656;2023-11-22T01:33:26;33.20;;;20.02;;
56122;SDS011;42426;46.104;19.656;2023-11-22T01:35:52;33.45;;;20.27;;
56122;SDS011;42426;46.104;19.656;2023-11-22T01:38:19;36.85;;;21.02;;
56122;SDS011;42426;46.104;19.656;2023-11-22T01:40:48;29.30;;;19.33;;
56122;SDS011;42426;46.104;19.656;2023-11-22T01:43:18;32.65;;;20.25;;
56122;SDS011;42426;46.104;19.656;2023-11-22T01:45:45;32.42;;;21.17;;
56122;SDS011;42426;46.104;19.656;2023-11-22T01:48:12;30.33;;;20.15;;
56122;SDS011;42426;46.104;19.656;2023-11-22T01:50:39;31.20;;;21.30;;
56122;SDS011;42426;46.104;19.656;2023-11-22T01:53:09;32.03;;;21.30;;
56122;SDS011;42426;46.104;19.656;2023-11-22T01:55:37;33.58;;;21.63;;
56122;SDS011;42426;46.104;19.656;2023-11-22T01:58:03;36.05;;;21.52;;
56122;SDS011;42426;46.104;19.656;2023-11-22T02:00:36;38.67;;;22.65;;
56122;SDS011;42426;46.104;19.656;2023-11-22T02:03:06;36.47;;;21.67;;
56122;SDS011;42426;46.104;19.656;2023-11-22T02:05:33;34.60;;;22.63;;
56122;SDS011;42426;46.104;19.656;2023-11-22T02:07:59;41.38;;;23.85;;
56122;SDS011;42426;46.104;19.656;2023-11-22T02:10:25;35.75;;;21.48;;
56122;SDS011;42426;46.104;19.656;2023-11-22T02:12:51;41.47;;;23.90;;
56122;SDS011;42426;46.104;19.656;2023-11-22T02:15:17;39.85;;;23.95;;
56122;SDS011;42426;46.104;19.656;2023-11-22T02:17:44;42.53;;;24.25;;
56122;SDS011;42426;46.104;19.656;2023-11-22T02:20:11;41.83;;;23.63;;
56122;SDS011;42426;46.104;19.656;2023-11-22T02:22:44;47.03;;;25.40;;
56122;SDS011;42426;46.104;19.656;2023-11-22T02:25:11;39.45;;;22.92;;
56122;SDS011;42426;46.104;19.656;2023-11-22T02:27:37;40.03;;;22.60;;
56122;SDS011;42426;46.104;19.656;2023-11-22T02:30:03;40.90;;;24.15;;
56122;SDS011;42426;46.104;19.656;2023-11-22T02:32:32;41.53;;;25.75;;
56122;SDS011;42426;46.104;19.656;2023-11-22T02:34:58;42.15;;;24.83;;
56122;SDS011;42426;46.104;19.656;2023-11-22T02:37:26;42.08;;;24.48;;
56122;SDS011;42426;46.104;19.656;2023-11-22T02:42:38;42.20;;;23.83;;
56122;SDS011;42426;46.104;19.656;2023-11-22T02:45:04;46.65;;;25.20;;
56122;SDS011;42426;46.104;19.656;2023-11-22T02:47:30;41.70;;;22.73;;
56122;SDS011;42426;46.104;19.656;2023-11-22T02:49:57;47.38;;;21.92;;
56122;SDS011;42426;46.104;19.656;2023-11-22T02:52:23;44.45;;;24.30;;
56122;SDS011;42426;46.104;19.656;2023-11-22T02:54:49;46.83;;;23.05;;
56122;SDS011;42426;46.104;19.656;2023-11-22T02:57:15;41.88;;;23.85;;
56122;SDS011;42426;46.104;19.656;2023-11-22T02:59:44;45.65;;;25.25;;
56122;SDS011;42426;46.104;19.656;2023-11-22T03:02:10;45.58;;;23.17;;
56122;SDS011;42426;46.104;19.656;2023-11-22T03:04:37;41.85;;;22.30;;
56122;SDS011;42426;46.104;19.656;2023-11-22T03:07:03;44.00;;;22.77;;
56122;SDS011;42426;46.104;19.656;2023-11-22T03:09:31;40.33;;;23.15;;
56122;SDS011;42426;46.104;19.656;2023-11-22T03:11:58;42.92;;;23.08;;
56122;SDS011;42426;46.104;19.656;2023-11-22T03:14:25;41.60;;;22.70;;
56122;SDS011;42426;46.104;19.656;2023-11-22T03:16:51;45.92;;;22.80;;
56122;SDS011;42426;46.104;19.656;2023-11-22T03:19:17;50.80;;;24.00;;
56122;SDS011;42426;46.104;19.656;2023-11-22T03:21:44;49.60;;;23.27;;
56122;SDS011;42426;46.104;19.656;2023-11-22T03:24:10;42.22;;;21.48;;
56122;SDS011;42426;46.104;19.656;2023-11-22T03:26:36;43.58;;;20.35;;
56122;SDS011;42426;46.104;19.656;2023-11-22T03:29:04;40.72;;;20.65;;
56122;SDS011;42426;46.104;19.656;2023-11-22T03:31:30;43.13;;;22.40;;
56122;SDS011;42426;46.104;19.656;2023-11-22T03:33:56;49.13;;;22.50;;
56122;SDS011;42426;46.104;19.656;2023-11-22T03:36:22;47.17;;;22.98;;
56122;SDS011;42426;46.104;19.656;2023-11-22T03:38:49;50.30;;;22.48;;
56122;SDS011;42426;46.104;19.656;2023-11-22T03:41:16;47.05;;;23.05;;
56122;SDS011;42426;46.104;19.656;2023-11-22T03:43:46;46.80;;;22.77;;
56122;SDS011;42426;46.104;19.656;2023-11-22T03:46:13;42.40;;;21.77;;
56122;SDS011;42426;46.104;19.656;2023-11-22T03:48:41;42.78;;;21.38;;
56122;SDS011;42426;46.104;19.656;2023-11-22T03:51:07;37.47;;;21.73;;
56122;SDS011;42426;46.104;19.656;2023-11-22T03:53:34;35.13;;;18.98;;
56122;SDS011;42426;46.104;19.656;2023-11-22T03:56:00;39.65;;;20.88;;
56122;SDS011;42426;46.104;19.656;2023-11-22T03:58:26;35.45;;;19.38;;
56122;SDS011;42426;46.104;19.656;2023-11-22T04:00:52;33.30;;;19.48;;
56122;SDS011;42426;46.104;19.656;2023-11-22T04:03:18;38.15;;;19.33;;
56122;SDS011;42426;46.104;19.656;2023-11-22T04:05:45;37.67;;;19.20;;
56122;SDS011;42426;46.104;19.656;2023-11-22T04:08:11;38.67;;;19.05;;
56122;SDS011;42426;46.104;19.656;2023-11-22T04:10:37;40.97;;;18.45;;
56122;SDS011;42426;46.104;19.656;2023-11-22T04:13:03;39.22;;;18.83;;
56122;SDS011;42426;46.104;19.656;2023-11-22T04:15:30;33.63;;;18.35;;
56122;SDS011;42426;46.104;19.656;2023-11-22T04:17:57;33.58;;;18.40;;
56122;SDS011;42426;46.104;19.656;2023-11-22T04:20:23;35.53;;;18.35;;
56122;SDS011;42426;46.104;19.656;2023-11-22T04:22:49;34.47;;;17.48;;
56122;SDS011;42426;46.104;19.656;2023-11-22T04:25:16;35.05;;;18.05;;
56122;SDS011;42426;46.104;19.656;2023-11-22T04:27:44;35.50;;;19.23;;
56122;SDS011;42426;46.104;19.656;2023-11-22T04:30:10;37.88;;;18.88;;
56122;SDS011;42426;46.104;19.656;2023-11-22T04:32:39;32.45;;;18.08;;
56122;SDS011;42426;46.104;19.656;2023-11-22T04:35:06;30.35;;;17.25;;
56122;SDS011;42426;46.104;19.656;2023-11-22T04:37:33;34.40;;;18.92;;
56122;SDS011;42426;46.104;19.656;2023-11-22T04:39:59;39.63;;;19.77;;
56122;SDS011;42426;46.104;19.656;2023-11-22T04:42:26;31.40;;;18.17;;
56122;SDS011;42426;46.104;19.656;2023-11-22T04:44:53;35.38;;;17.58;;
56122;SDS011;42426;46.104;19.656;2023-11-22T04:47:19;32.00;;;18.25;;
56122;SDS011;42426;46.104;19.656;2023-11-22T04:49:49;40.40;;;19.95;;
56122;SDS011;42426;46.104;19.656;2023-11-22T04:52:15;40.10;;;18.95;;
56122;SDS011;42426;46.104;19.656;2023-11-22T04:54:41;38.53;;;17.67;;
56122;SDS011;42426;46.104;19.656;2023-11-22T04:57:07;40.53;;;19.95;;
56122;SDS011;42426;46.104;19.656;2023-11-22T04:59:34;42.05;;;18.15;;
56122;SDS011;42426;46.104;19.656;2023-11-22T05:02:01;38.70;;;19.65;;
56122;SDS011;42426;46.104;19.656;2023-11-22T05:04:27;36.60;;;17.73;;
56122;SDS011;42426;46.104;19.656;2023-11-22T05:06:53;32.55;;;17.60;;
56122;SDS011;42426;46.104;19.656;2023-11-22T05:09:21;34.72;;;17.63;;
56122;SDS011;42426;46.104;19.656;2023-11-22T05:11:47;37.33;;;18.55;;
56122;SDS011;42426;46.104;19.656;2023-11-22T05:14:14;37.92;;;18.00;;
56122;SDS011;42426;46.104;19.656;2023-11-22T05:16:40;37.70;;;18.88;;
56122;SDS011;42426;46.104;19.656;2023-11-22T05:19:06;38.67;;;19.70;;
56122;SDS011;42426;46.104;19.656;2023-11-22T05:21:33;38.42;;;20.27;;
56122;SDS011;42426;46.104;19.656;2023-11-22T05:24:00;36.75;;;18.85;;
56122;SDS011;42426;46.104;19.656;2023-11-22T05:26:26;37.45;;;19.40;;
56122;SDS011;42426;46.104;19.656;2023-11-22T05:28:52;35.20;;;17.63;;
56122;SDS011;42426;46.104;19.656;2023-11-22T05:31:22;34.08;;;19.63;;
56122;SDS011;42426;46.104;19.656;2023-11-22T05:33:48;35.63;;;17.52;;
56122;SDS011;42426;46.104;19.656;2023-11-22T05:36:14;36.35;;;18.90;;
56122;SDS011;42426;46.104;19.656;2023-11-22T05:38:41;35.00;;;19.63;;
56122;SDS011;42426;46.104;19.656;2023-11-22T05:41:08;40.13;;;19.20;;
56122;SDS011;42426;46.104;19.656;2023-11-22T05:43:34;36.80;;;17.65;;
56122;SDS011;42426;46.104;19.656;2023-11-22T05:46:02;33.95;;;19.08;;
56122;SDS011;42426;46.104;19.656;2023-11-22T05:48:28;35.65;;;17.90;;
56122;SDS011;42426;46.104;19.656;2023-11-22T05:50:55;32.03;;;17.65;;
56122;SDS011;42426;46.104;19.656;2023-11-22T05:53:21;32.17;;;18.45;;
56122;SDS011;42426;46.104;19.656;2023-11-22T05:55:48;35.08;;;18.33;;
56122;SDS011;42426;46.104;19.656;2023-11-22T05:58:14;29.80;;;15.18;;
56122;SDS011;42426;46.104;19.656;2023-11-22T06:00:44;36.53;;;18.80;;
56122;SDS011;42426;46.104;19.656;2023-11-22T06:03:11;32.28;;;17.50;;
56122;SDS011;42426;46.104;19.656;2023-11-22T06:05:37;30.73;;;15.98;;
56122;SDS011;42426;46.104;19.656;2023-11-22T06:08:03;30.48;;;17.45;;
56122;SDS011;42426;46.104;19.656;2023-11-22T06:10:29;30.80;;;16.00;;
56122;SDS011;42426;46.104;19.656;2023-11-22T06:12:55;29.60;;;16.23;;
56122;SDS011;42426;46.104;19.656;2023-11-22T06:15:21;31.40;;;17.77;;
56122;SDS011;42426;46.104;19.656;2023-11-22T06:17:48;26.90;;;15.00;;
56122;SDS011;42426;46.104;19.656;2023-11-22T06:20:15;32.47;;;16.48;;
56122;SDS011;42426;46.104;19.656;2023-11-22T06:22:41;28.23;;;16.80;;
56122;SDS011;42426;46.104;19.656;2023-11-22T06:25:13;31.48;;;17.38;;
56122;SDS011;42426;46.104;19.656;2023-11-22T06:27:40;35.25;;;17.55;;
56122;SDS011;42426;46.104;19.656;2023-11-22T06:30:07;33.63;;;17.90;;
56122;SDS011;42426;46.104;19.656;2023-11-22T06:32:34;29.50;;;16.65;;
56122;SDS011;42426;46.104;19.656;2023-11-22T06:35:00;35.05;;;18.15;;
56122;SDS011;42426;46.104;19.656;2023-11-22T06:37:28;30.08;;;16.58;;
56122;SDS011;42426;46.104;19.656;2023-11-22T06:39:54;31.15;;;16.70;;
56122;SDS011;42426;46.104;19.656;2023-11-22T06:42:22;32.83;;;16.52;;
56122;SDS011;42426;46.104;19.656;2023-11-22T06:44:48;31.77;;;16.60;;
56122;SDS011;42426;46.104;19.656;2023-11-22T06:47:16;34.03;;;16.60;;
56122;SDS011;42426;46.104;19.656;2023-11-22T06:49:42;29.58;;;17.60;;
56122;SDS011;42426;46.104;19.656;2023-11-22T06:52:09;29.20;;;17.23;;
56122;SDS011;42426;46.104;19.656;2023-11-22T06:54:35;29.35;;;16.00;;
56122;SDS011;42426;46.104;19.656;2023-11-22T06:57:04;30.67;;;16.40;;
56122;SDS011;42426;46.104;19.656;2023-11-22T06:59:30;26.83;;;14.65;;
56122;SDS011;42426;46.104;19.656;2023-11-22T07:01:58;32.05;;;15.85;;
56122;SDS011;42426;46.104;19.656;2023-11-22T07:04:24;32.33;;;15.35;;
56122;SDS011;42426;46.104;19.656;2023-11-22T07:06:50;30.65;;;15.40;;
56122;SDS011;42426;46.104;19.656;2023-11-22T07:09:16;28.05;;;15.23;;
56122;SDS011;42426;46.104;19.656;2023-11-22T07:11:42;31.30;;;15.70;;
56122;SDS011;42426;46.104;19.656;2023-11-22T07:14:09;30.80;;;15.93;;
56122;SDS011;42426;46.104;19.656;2023-11-22T07:16:35;23.80;;;15.23;;
56122;SDS011;42426;46.104;19.656;2023-11-22T07:19:02;33.60;;;17.25;;
56122;SDS011;42426;46.104;19.656;2023-11-22T07:21:29;36.03;;;17.48;;
56122;SDS011;42426;46.104;19.656;2023-11-22T07:23:55;30.52;;;16.20;;
56122;SDS011;42426;46.104;19.656;2023-11-22T07:26:21;29.08;;;17.38;;
56122;SDS011;42426;46.104;19.656;2023-11-22T07:28:47;32.40;;;18.10;;
56122;SDS011;42426;46.104;19.656;2023-11-22T07:31:13;25.80;;;15.52;;
56122;SDS011;42426;46.104;19.656;2023-11-22T07:33:40;27.50;;;17.08;;
56122;SDS011;42426;46.104;19.656;2023-11-22T07:36:07;31.98;;;17.27;;
56122;SDS011;42426;46.104;19.656;2023-11-22T07:38:34;31.70;;;17.10;;
56122;SDS011;42426;46.104;19.656;2023-11-22T07:41:00;36.05;;;17.73;;
56122;SDS011;42426;46.104;19.656;2023-11-22T07:43:26;29.80;;;17.10;;
56122;SDS011;42426;46.104;19.656;2023-11-22T07:45:53;33.28;;;18.38;;
56122;SDS011;42426;46.104;19.656;2023-11-22T07:48:20;32.05;;;17.20;;
56122;SDS011;42426;46.104;19.656;2023-11-22T07:50:47;29.73;;;17.98;;
56122;SDS011;42426;46.104;19.656;2023-11-22T07:53:15;34.30;;;19.15;;
56122;SDS011;42426;46.104;19.656;2023-11-22T07:55:42;33.78;;;19.48;;
56122;SDS011;42426;46.104;19.656;2023-11-22T07:58:09;31.08;;;18.20;;
56122;SDS011;42426;46.104;19.656;2023-11-22T08:00:36;33.60;;;17.05;;
56122;SDS011;42426;46.104;19.656;2023-11-22T08:03:02;30.38;;;15.38;;
56122;SDS011;42426;46.104;19.656;2023-11-22T08:05:29;31.38;;;15.68;;
56122;SDS011;42426;46.104;19.656;2023-11-22T08:08:00;30.63;;;17.92;;
56122;SDS011;42426;46.104;19.656;2023-11-22T08:10:26;32.00;;;16.60;;
56122;SDS011;42426;46.104;19.656;2023-11-22T08:12:53;26.42;;;16.15;;
56122;SDS011;42426;46.104;19.656;2023-11-22T08:15:19;32.25;;;16.25;;
56122;SDS011;42426;46.104;19.656;2023-11-22T08:17:46;26.25;;;14.18;;
56122;SDS011;42426;46.104;19.656;2023-11-22T08:20:13;31.90;;;17.88;;
56122;SDS011;42426;46.104;19.656;2023-11-22T08:22:44;31.67;;;15.32;;
56122;SDS011;42426;46.104;19.656;2023-11-22T08:25:16;30.45;;;16.90;;
56122;SDS011;42426;46.104;19.656;2023-11-22T08:27:42;29.27;;;14.63;;
56122;SDS011;42426;46.104;19.656;2023-11-22T08:30:09;28.40;;;16.45;;
56122;SDS011;42426;46.104;19.656;2023-11-22T08:32:47;27.50;;;14.68;;
56122;SDS011;42426;46.104;19.656;2023-11-22T08:35:18;30.05;;;17.10;;
56122;SDS011;42426;46.104;19.656;2023-11-22T08:37:46;32.20;;;15.50;;
56122;SDS011;42426;46.104;19.656;2023-11-22T08:40:15;27.88;;;15.77;;
56122;SDS011;42426;46.104;19.656;2023-11-22T08:42:48;28.27;;;15.73;;
56122;SDS011;42426;46.104;19.656;2023-11-22T08:45:15;30.08;;;17.02;;
56122;SDS011;42426;46.104;19.656;2023-11-22T08:47:41;23.52;;;15.18;;
56122;SDS011;42426;46.104;19.656;2023-11-22T08:50:08;28.88;;;15.85;;
56122;SDS011;42426;46.104;19.656;2023-11-22T08:52:40;31.45;;;13.85;;
56122;SDS011;42426;46.104;19.656;2023-11-22T08:55:07;25.15;;;13.88;;
56122;SDS011;42426;46.104;19.656;2023-11-22T08:57:36;24.02;;;13.18;;
56122;SDS011;42426;46.104;19.656;2023-11-22T09:00:03;26.10;;;14.75;;
56122;SDS011;42426;46.104;19.656;2023-11-22T09:02:33;24.00;;;13.93;;
56122;SDS011;42426;46.104;19.656;2023-11-22T09:05:01;21.95;;;14.50;;
56122;SDS011;42426;46.104;19.656;2023-11-22T09:07:29;22.65;;;11.90;;
56122;SDS011;42426;46.104;19.656;2023-11-22T09:09:56;22.40;;;13.10;;
56122;SDS011;42426;46.104;19.656;2023-11-22T09:12:23;20.50;;;12.00;;
56122;SDS011;42426;46.104;19.656;2023-11-22T09:14:49;26.33;;;16.08;;
56122;SDS011;42426;46.104;19.656;2023-11-22T09:19:41;22.42;;;12.48;;
56122;SDS011;42426;46.104;19.656;2023-11-22T09:22:07;23.73;;;13.60;;
56122;SDS011;42426;46.104;19.656;2023-11-22T09:24:33;24.90;;;13.85;;
56122;SDS011;42426;46.104;19.656;2023-11-22T09:27:02;19.92;;;11.70;;
56122;SDS011;42426;46.104;19.656;2023-11-22T09:29:30;23.52;;;13.75;;
56122;SDS011;42426;46.104;19.656;2023-11-22T09:31:56;22.77;;;14.15;;
56122;SDS011;42426;46.104;19.656;2023-11-22T09:34:22;25.33;;;13.88;;
56122;SDS011;42426;46.104;19.656;2023-11-22T09:36:50;20.95;;;14.50;;
56122;SDS011;42426;46.104;19.656;2023-11-22T09:39:16;21.95;;;14.77;;
56122;SDS011;42426;46.104;19.656;2023-11-22T09:41:46;24.15;;;14.20;;
56122;SDS011;42426;46.104;19.656;2023-11-22T09:44:13;21.38;;;13.52;;
56122;SDS011;42426;46.104;19.656;2023-11-22T09:46:42;24.05;;;14.60;;
56122;SDS011;42426;46.104;19.656;2023-11-22T09:49:08;20.40;;;12.65;;
56122;SDS011;42426;46.104;19.656;2023-11-22T09:51:36;29.02;;;14.85;;
56122;SDS011;42426;46.104;19.656;2023-11-22T09:54:06;23.58;;;13.02;;
56122;SDS011;42426;46.104;19.656;2023-11-22T09:56:34;23.27;;;13.75;;
56122;SDS011;42426;46.104;19.656;2023-11-22T09:59:04;22.05;;;12.25;;
56122;SDS011;42426;46.104;19.656;2023-11-22T10:01:32;19.85;;;12.02;;
56122;SDS011;42426;46.104;19.656;2023-11-22T10:04:01;24.38;;;13.90;;
56122;SDS011;42426;46.104;19.656;2023-11-22T10:06:30;18.67;;;12.23;;
56122;SDS011;42426;46.104;19.656;2023-11-22T10:09:00;21.85;;;12.95;;
56122;SDS011;42426;46.104;19.656;2023-11-22T10:11:26;24.83;;;13.70;;
56122;SDS011;42426;46.104;19.656;2023-11-22T10:13:54;18.00;;;12.80;;
56122;SDS011;42426;46.104;19.656;2023-11-22T10:16:22;24.85;;;13.07;;
56122;SDS011;42426;46.104;19.656;2023-11-22T10:18:48;17.55;;;11.38;;
56122;SDS011;42426;46.104;19.656;2023-11-22T10:21:32;21.88;;;13.40;;
56122;SDS011;42426;46.104;19.656;2023-11-22T10:26:25;19.48;;;11.88;;
56122;SDS011;42426;46.104;19.656;2023-11-22T10:28:53;19.73;;;11.30;;
56122;SDS011;42426;46.104;19.656;2023-11-22T10:31:20;23.45;;;12.85;;
56122;SDS011;42426;46.104;19.656;2023-11-22T10:33:47;23.77;;;12.40;;
56122;SDS011;42426;46.104;19.656;2023-11-22T10:36:13;22.73;;;13.18;;
56122;SDS011;42426;46.104;19.656;2023-11-22T10:38:40;25.70;;;13.88;;
56122;SDS011;42426;46.104;19.656;2023-11-22T10:41:07;22.17;;;12.32;;
56122;SDS011;42426;46.104;19.656;2023-11-22T10:43:35;18.05;;;11.65;;
56122;SDS011;42426;46.104;19.656;2023-11-22T10:46:04;19.98;;;12.35;;
56122;SDS011;42426;46.104;19.656;2023-11-22T10:48:31;19.75;;;13.07;;
56122;SDS011;42426;46.104;19.656;2023-11-22T10:51:01;18.25;;;11.15;;
56122;SDS011;42426;46.104;19.656;2023-11-22T10:53:34;16.70;;;11.50;;
56122;SDS011;42426;46.104;19.656;2023-11-22T10:56:21;21.65;;;12.50;;
56122;SDS011;42426;46.104;19.656;2023-11-22T10:58:51;18.38;;;12.18;;
56122;SDS011;42426;46.104;19.656;2023-11-22T11:01:18;21.33;;;12.18;;
56122;SDS011;42426;46.104;19.656;2023-11-22T11:03:54;22.38;;;12.80;;
56122;SDS011;42426;46.104;19.656;2023-11-22T11:06:23;21.63;;;12.73;;
56122;SDS011;42426;46.104;19.656;2023-11-22T11:08:53;16.40;;;11.15;;
56122;SDS011;42426;46.104;19.656;2023-11-22T11:11:19;21.70;;;12.85;;
56122;SDS011;42426;46.104;19.656;2023-11-22T11:13:46;20.88;;;13.30;;
56122;SDS011;42426;46.104;19.656;2023-11-22T11:16:13;19.60;;;13.48;;
56122;SDS011;42426;46.104;19.656;2023-11-22T11:18:40;17.75;;;12.68;;
56122;SDS011;42426;46.104;19.656;2023-11-22T11:21:08;17.55;;;11.82;;
56122;SDS011;42426;46.104;19.656;2023-11-22T11:23:37;18.23;;;11.30;;
56122;SDS011;42426;46.104;19.656;2023-11-22T11:26:09;18.80;;;12.00;;
56122;SDS011;42426;46.104;19.656;2023-11-22T11:28:44;18.63;;;11.65;;
56122;SDS011;42426;46.104;19.656;2023-11-22T11:31:13;17.55;;;12.13;;
56122;SDS011;42426;46.104;19.656;2023-11-22T11:38:48;19.35;;;12.30;;
56122;SDS011;42426;46.104;19.656;2023-11-22T11:41:17;19.92;;;12.00;;
56122;SDS011;42426;46.104;19.656;2023-11-22T11:43:44;20.25;;;12.48;;
56122;SDS011;42426;46.104;19.656;2023-11-22T11:46:16;18.38;;;10.98;;
56122;SDS011;42426;46.104;19.656;2023-11-22T11:48:50;16.65;;;11.05;;
56122;SDS011;42426;46.104;19.656;2023-11-22T11:51:21;16.73;;;11.27;;
56122;SDS011;42426;46.104;19.656;2023-11-22T11:53:48;21.25;;;12.23;;
56122;SDS011;42426;46.104;19.656;2023-11-22T11:56:14;15.45;;;10.82;;
56122;SDS011;42426;46.104;19.656;2023-11-22T11:58:41;17.02;;;11.70;;
56122;SDS011;42426;46.104;19.656;2023-11-22T12:01:08;15.60;;;11.48;;
56122;SDS011;42426;46.104;19.656;2023-11-22T12:03:38;16.10;;;11.82;;
56122;SDS011;42426;46.104;19.656;2023-11-22T12:06:05;17.38;;;12.35;;
56122;SDS011;42426;46.104;19.656;2023-11-22T12:08:31;20.48;;;11.98;;
56122;SDS011;42426;46.104;19.656;2023-11-22T12:11:01;15.98;;;10.82;;
56122;SDS011;42426;46.104;19.656;2023-11-22T12:13:29;14.80;;;10.60;;
56122;SDS011;42426;46.104;19.656;2023-11-22T12:15:55;18.60;;;11.10;;
56122;SDS011;42426;46.104;19.656;2023-11-22T12:18:21;20.85;;;15.68;;
56122;SDS011;42426;46.104;19.656;2023-11-22T12:20:57;20.35;;;13.88;;
56122;SDS011;42426;46.104;19.656;2023-11-22T12:23:23;17.60;;;12.27;;
56122;SDS011;42426;46.104;19.656;2023-11-22T12:25:57;18.45;;;12.68;;
56122;SDS011;42426;46.104;19.656;2023-11-22T12:28:24;12.95;;;9.98;;
56122;SDS011;42426;46.104;19.656;2023-11-22T12:30:50;20.27;;;12.02;;
56122;SDS011;42426;46.104;19.656;2023-11-22T12:33:17;15.65;;;9.63;;
56122;SDS011;42426;46.104;19.656;2023-11-22T12:35:44;16.55;;;10.13;;
56122;SDS011;42426;46.104;19.656;2023-11-22T12:38:11;13.88;;;8.98;;
56122;SDS011;42426;46.104;19.656;2023-11-22T12:40:38;16.67;;;9.38;;
56122;SDS011;42426;46.104;19.656;2023-11-22T12:43:09;16.35;;;10.85;;
56122;SDS011;42426;46.104;19.656;2023-11-22T12:45:35;18.52;;;14.10;;
56122;SDS011;42426;46.104;19.656;2023-11-22T12:48:25;21.00;;;14.82;;
56122;SDS011;42426;46.104;19.656;2023-11-22T12:50:51;17.10;;;12.80;;
56122;SDS011;42426;46.104;19.656;2023-11-22T12:53:18;16.48;;;11.23;;
56122;SDS011;42426;46.104;19.656;2023-11-22T12:55:47;16.45;;;9.57;;
56122;SDS011;42426;46.104;19.656;2023-11-22T12:58:36;14.40;;;8.18;;
56122;SDS011;42426;46.104;19.656;2023-11-22T13:01:03;12.98;;;8.50;;
56122;SDS011;42426;46.104;19.656;2023-11-22T13:03:29;13.82;;;8.05;;
56122;SDS011;42426;46.104;19.656;2023-11-22T13:05:56;11.63;;;7.38;;
56122;SDS011;42426;46.104;19.656;2023-11-22T13:08:23;13.48;;;8.57;;
56122;SDS011;42426;46.104;19.656;2023-11-22T13:10:54;11.80;;;8.25;;
56122;SDS011;42426;46.104;19.656;2023-11-22T13:13:23;16.58;;;8.48;;
56122;SDS011;42426;46.104;19.656;2023-11-22T13:15:51;14.95;;;8.52;;
56122;SDS011;42426;46.104;19.656;2023-11-22T13:18:18;15.05;;;7.72;;
56122;SDS011;42426;46.104;19.656;2023-11-22T13:20:45;10.43;;;6.43;;
56122;SDS011;42426;46.104;19.656;2023-11-22T13:23:11;12.40;;;7.53;;
56122;SDS011;42426;46.104;19.656;2023-11-22T13:25:38;10.70;;;6.13;;
56122;SDS011;42426;46.104;19.656;2023-11-22T13:28:06;11.13;;;7.38;;
56122;SDS011;42426;46.104;19.656;2023-11-22T13:30:33;11.15;;;8.38;;
56122;SDS011;42426;46.104;19.656;2023-11-22T13:33:00;15.65;;;9.98;;
56122;SDS011;42426;46.104;19.656;2023-11-22T13:35:27;17.42;;;9.07;;
56122;SDS011;42426;46.104;19.656;2023-11-22T13:37:58;12.60;;;8.30;;
56122;SDS011;42426;46.104;19.656;2023-11-22T13:40:26;14.68;;;8.70;;
56122;SDS011;42426;46.104;19.656;2023-11-22T13:42:55;13.25;;;8.45;;
56122;SDS011;42426;46.104;19.656;2023-11-22T13:45:21;12.20;;;7.60;;
56122;SDS011;42426;46.104;19.656;2023-11-22T13:47:49;18.45;;;8.65;;
56122;SDS011;42426;46.104;19.656;2023-11-22T13:50:18;13.02;;;8.48;;
56122;SDS011;42426;46.104;19.656;2023-11-22T13:52:47;17.40;;;8.63;;
56122;SDS011;42426;46.104;19.656;2023-11-22T13:55:13;16.83;;;9.38;;
56122;SDS011;42426;46.104;19.656;2023-11-22T13:57:41;20.85;;;10.10;;
56122;SDS011;42426;46.104;19.656;2023-11-22T14:00:08;17.55;;;10.93;;
56122;SDS011;42426;46.104;19.656;2023-11-22T14:02:43;15.57;;;10.40;;
56122;SDS011;42426;46.104;19.656;2023-11-22T14:05:10;20.77;;;11.00;;
56122;SDS011;42426;46.104;19.656;2023-11-22T14:07:37;18.30;;;11.27;;
56122;SDS011;42426;46.104;19.656;2023-11-22T14:10:03;19.90;;;9.82;;
56122;SDS011;42426;46.104;19.656;2023-11-22T14:12:31;20.70;;;10.80;;
56122;SDS011;42426;46.104;19.656;2023-11-22T14:14:59;19.77;;;9.93;;
56122;SDS011;42426;46.104;19.656;2023-11-22T14:17:25;16.55;;;8.95;;
56122;SDS011;42426;46.104;19.656;2023-11-22T14:19:54;12.57;;;7.65;;
56122;SDS011;42426;46.104;19.656;2023-11-22T14:22:21;14.43;;;7.45;;
56122;SDS011;42426;46.104;19.656;2023-11-22T14:24:50;13.27;;;7.88;;